createdAt,value
2022-07-31T00:03:45.265Z,12.2
2022-07-31T00:09:45.340Z,12.1
2022-07-31T00:14:54.519Z,12.2
2022-07-31T00:20:30.059Z,12.2
2022-07-31T00:26:05.067Z,12.1
2022-07-31T00:31:39.532Z,12.1
2022-07-31T00:37:17.734Z,12.1
2022-07-31T00:42:49.559Z,12
2022-07-31T00:48:24.619Z,12
2022-07-31T00:54:00.617Z,12
2022-07-31T00:59:34.585Z,12
2022-07-31T01:05:09.626Z,12
2022-07-31T01:10:44.599Z,12
2022-07-31T01:16:19.550Z,12
2022-07-31T01:21:54.614Z,12.1
2022-07-31T01:27:29.734Z,12.1
2022-07-31T01:33:04.756Z,12
2022-07-31T01:38:45.179Z,12
2022-07-31T01:44:14.758Z,11.9
2022-07-31T01:49:49.827Z,11.8
2022-07-31T01:55:24.816Z,11.7
2022-07-31T02:00:59.726Z,11.6
2022-07-31T02:06:34.815Z,11.4
2022-07-31T02:12:10.669Z,11.2
2022-07-31T02:17:44.695Z,11
2022-07-31T02:23:19.642Z,10.8
2022-07-31T02:28:54.696Z,10.6
2022-07-31T02:34:30.271Z,10.6
2022-07-31T02:40:04.764Z,10.4
2022-07-31T02:45:39.794Z,10.5
2022-07-31T02:51:14.682Z,10.5
2022-07-31T02:56:49.744Z,10.4
2022-07-31T03:03:31.795Z,10.4
2022-07-31T03:09:06.804Z,10.4
2022-07-31T03:14:41.945Z,10.3
2022-07-31T03:20:26.884Z,10.4
2022-07-31T03:25:51.834Z,10.4
2022-07-31T03:31:26.886Z,10.5
2022-07-31T03:37:01.891Z,10.8
2022-07-31T03:42:36.939Z,11.1
2022-07-31T03:48:11.927Z,11.4
2022-07-31T03:53:47.005Z,11.6
2022-07-31T03:59:21.986Z,11.6
2022-07-31T04:04:57.025Z,11.7
2022-07-31T04:10:31.984Z,11.8
2022-07-31T04:16:06.962Z,11.9
2022-07-31T04:21:41.915Z,11.9
2022-07-31T04:27:16.959Z,12
2022-07-31T04:32:51.862Z,12.1
2022-07-31T04:38:26.923Z,12.1
2022-07-31T04:44:01.954Z,12
2022-07-31T04:49:37.011Z,12
2022-07-31T04:55:11.425Z,12.1
2022-07-31T05:00:46.436Z,12.2
2022-07-31T05:06:21.963Z,12.2
2022-07-31T05:11:56.431Z,12.1
2022-07-31T05:18:39.078Z,12.2
2022-07-31T05:24:13.561Z,12.2
2022-07-31T05:29:48.628Z,12.2
2022-07-31T05:35:24.584Z,12.2
2022-07-31T05:40:58.695Z,12.4
2022-07-31T05:46:33.687Z,12.5
2022-07-31T05:52:08.663Z,12.6
2022-07-31T05:57:43.617Z,12.6
2022-07-31T06:11:07.834Z,12.6
2022-07-31T06:16:43.988Z,12.6
2022-07-31T06:22:17.997Z,12.7
2022-07-31T06:27:59.163Z,12.7
2022-07-31T06:33:37.436Z,12.8
2022-07-31T06:39:02.403Z,12.9
2022-07-31T06:44:46.034Z,13
2022-07-31T06:50:12.368Z,13
2022-07-31T06:55:47.354Z,13
2022-07-31T07:01:22.389Z,13
2022-07-31T07:06:57.420Z,13.1
2022-07-31T07:12:32.344Z,13.4
2022-07-31T07:18:07.416Z,14.5
2022-07-31T07:23:42.362Z,14.4
2022-07-31T07:29:17.411Z,15.6
2022-07-31T07:35:00.300Z,15.7
2022-07-31T07:40:27.442Z,15.5
2022-07-31T07:46:02.435Z,15
2022-07-31T07:51:37.461Z,14.7
2022-07-31T07:57:12.484Z,15.7
2022-07-31T08:03:54.575Z,16.7
2022-07-31T08:09:29.724Z,17.3
2022-07-31T08:15:05.267Z,17.6
2022-07-31T08:22:53.768Z,18
2022-07-31T08:28:28.803Z,18.2
2022-07-31T08:34:03.264Z,18.4
2022-07-31T08:39:38.307Z,18.4
2022-07-31T08:45:13.261Z,18.1
2022-07-31T08:50:53.392Z,17.4
2022-07-31T08:56:23.280Z,17.7
2022-07-31T09:01:59.427Z,17.7
2022-07-31T09:07:33.353Z,17.8
2022-07-31T09:13:08.336Z,17.2
2022-07-31T09:18:43.303Z,17.4
2022-07-31T09:26:32.592Z,17.8
2022-07-31T09:32:07.585Z,17.4
2022-07-31T09:37:42.613Z,17.1
2022-07-31T09:43:18.720Z,17.1
2022-07-31T09:48:56.657Z,17.7
2022-07-31T09:54:27.664Z,17.9
2022-07-31T10:00:02.575Z,18.1
2022-07-31T10:05:37.665Z,18
2022-07-31T10:11:16.462Z,18.1
2022-07-31T10:16:47.729Z,18.2
2022-07-31T10:22:22.662Z,17.7
2022-07-31T10:29:05.040Z,17.9
2022-07-31T10:34:39.289Z,18
2022-07-31T10:40:14.230Z,18
2022-07-31T10:45:49.304Z,17.8
2022-07-31T10:51:24.338Z,17.4
2022-07-31T10:56:59.321Z,17.2
2022-07-31T11:02:34.294Z,17.3
2022-07-31T11:08:09.315Z,17.3
2022-07-31T11:13:44.312Z,17.6
2022-07-31T11:19:19.272Z,17.5
2022-07-31T11:24:54.334Z,17.7
2022-07-31T11:30:29.414Z,17.8
2022-07-31T11:36:04.423Z,17.8
2022-07-31T11:41:44.192Z,17.6
2022-07-31T11:48:09.887Z,17.6
2022-07-31T11:52:49.343Z,17.5
2022-07-31T11:58:24.456Z,17.3
2022-07-31T12:04:08.530Z,17.3
2022-07-31T12:10:02.690Z,17.1
2022-07-31T12:15:09.510Z,17.1
2022-07-31T12:20:44.422Z,17.1
2022-07-31T12:26:19.378Z,17.3
2022-07-31T12:31:54.376Z,17.2
2022-07-31T12:37:29.470Z,17.3
2022-07-31T12:43:04.375Z,17.3
2022-07-31T12:48:43.181Z,17.2
2022-07-31T12:54:14.558Z,17
2022-07-31T12:59:49.521Z,17
2022-07-31T13:05:24.475Z,17
2022-07-31T13:10:59.527Z,16.9
2022-07-31T13:16:34.570Z,16.8
2022-07-31T13:22:09.587Z,16.9
2022-07-31T13:27:44.567Z,16.9
2022-07-31T13:33:19.528Z,16.7
2022-07-31T13:40:01.807Z,16.7
2022-07-31T13:45:36.752Z,16.4
2022-07-31T13:52:18.239Z,16.4
2022-07-31T13:57:53.307Z,16.4
2022-07-31T14:04:38.996Z,16.4
2022-07-31T14:10:10.357Z,16.4
2022-07-31T14:15:45.453Z,16.5
2022-07-31T14:21:20.344Z,16.6
2022-07-31T14:26:55.298Z,16.4
2022-07-31T14:33:37.520Z,16.3
2022-07-31T14:39:12.467Z,16.1
2022-07-31T14:44:47.426Z,16.4
2022-07-31T14:50:22.535Z,16.4
2022-07-31T14:56:03.779Z,16.5
2022-07-31T15:01:32.581Z,16.7
2022-07-31T15:07:33.750Z,16.8
2022-07-31T15:12:42.544Z,16.8
2022-07-31T15:18:17.615Z,16.4
2022-07-31T15:23:52.482Z,16.6
2022-07-31T15:30:00.209Z,16.6
2022-07-31T15:35:02.512Z,16.5
2022-07-31T15:40:37.600Z,16.6
2022-07-31T15:47:19.106Z,16.3
2022-07-31T15:52:54.107Z,16.5
2022-07-31T15:58:29.206Z,16.5
2022-07-31T16:04:04.205Z,16.3
2022-07-31T16:10:02.679Z,16.1
2022-07-31T16:15:14.144Z,16.1
2022-07-31T16:20:54.141Z,16.3
2022-07-31T16:26:24.257Z,16.2
2022-07-31T16:32:01.224Z,16.1
2022-07-31T16:37:50.294Z,16
2022-07-31T16:43:50.706Z,16
2022-07-31T16:48:44.265Z,15.9
2022-07-31T16:54:19.179Z,15.6
2022-07-31T16:59:57.479Z,15.3
2022-07-31T17:05:29.256Z,15.3
2022-07-31T17:11:04.256Z,15.4
2022-07-31T17:16:43.405Z,15.4
2022-07-31T17:22:16.220Z,15.4
2022-07-31T17:27:49.346Z,15.2
2022-07-31T17:33:58.390Z,15.1
2022-07-31T17:38:59.244Z,15.2
2022-07-31T17:44:34.331Z,15.2
2022-07-31T17:50:09.255Z,15.1
2022-07-31T17:55:44.519Z,15
2022-07-31T18:01:19.405Z,14.8
2022-07-31T18:06:54.983Z,15
2022-07-31T18:12:29.376Z,15
2022-07-31T18:18:04.394Z,14.9
2022-07-31T18:23:44.082Z,14.9
2022-07-31T18:29:14.479Z,14.7
2022-07-31T18:34:58.563Z,14.8
2022-07-31T18:41:31.328Z,14.9
2022-07-31T18:47:06.309Z,14.9
2022-07-31T18:52:41.332Z,14.9
2022-07-31T18:58:16.265Z,14.7
2022-07-31T19:03:51.229Z,14.6
2022-07-31T19:09:26.190Z,14.5
2022-07-31T19:15:01.252Z,14.4
2022-07-31T19:20:56.304Z,14.2
2022-07-31T19:26:12.855Z,14.2
2022-07-31T19:31:46.318Z,14
2022-07-31T19:37:21.209Z,14
2022-07-31T19:42:56.340Z,13.9
2022-07-31T19:48:31.343Z,13.9
2022-07-31T19:54:06.294Z,13.8
2022-07-31T19:59:41.352Z,13.7
2022-07-31T20:05:16.327Z,13.7
2022-07-31T20:10:51.613Z,13.6
2022-07-31T20:16:26.259Z,13.5
2022-07-31T20:22:01.383Z,13.5
2022-07-31T20:27:36.306Z,13.4
2022-07-31T20:33:13.161Z,13.4
2022-07-31T20:38:46.378Z,13.3
2022-07-31T20:45:27.990Z,13.2
2022-07-31T20:51:04.977Z,13.1
2022-07-31T20:56:37.885Z,13
2022-07-31T21:02:14.072Z,12.9
2022-07-31T21:07:47.901Z,12.8
2022-07-31T21:13:22.988Z,12.7
2022-07-31T21:18:58.106Z,12.7
2022-07-31T21:24:33.001Z,12.7
2022-07-31T21:30:08.014Z,12.6
2022-07-31T21:35:43.001Z,12.6
2022-07-31T21:41:18.182Z,12.4
2022-07-31T21:46:53.039Z,12.3
2022-07-31T21:52:28.065Z,12.3
2022-07-31T21:58:03.233Z,12.2
2022-07-31T22:03:37.971Z,12.2
2022-07-31T22:09:13.089Z,12
2022-07-31T22:14:48.435Z,11.9
2022-07-31T22:20:23.237Z,11.6
2022-07-31T22:25:58.052Z,11.6
2022-07-31T22:31:33.141Z,11.5
2022-07-31T22:37:08.224Z,11.4
2022-07-31T22:42:43.182Z,11.3
2022-07-31T22:49:25.279Z,11.2
2022-07-31T22:55:00.218Z,11.1
2022-07-31T23:00:35.212Z,11
2022-07-31T23:06:30.942Z,10.9
2022-07-31T23:12:57.917Z,10.7
2022-07-31T23:18:27.393Z,10.6
2022-07-31T23:24:02.358Z,10.6
2022-07-31T23:30:43.960Z,10.3
2022-07-31T23:36:22.581Z,10.2
2022-07-31T23:41:53.961Z,10
2022-07-31T23:47:45.002Z,9.9
2022-07-31T23:53:04.004Z,9.9
2022-07-31T23:58:39.016Z,9.9
